This is the latest recevied weather packets stored in our database for station/object K9APR. If no packets are shown the sender has not sent any weather packets the latest 1 day(s).
| Time | Temp. | Humidity | Pressure | Rain* | Wind** | Luminosity | Snow |
|---|---|---|---|---|---|---|---|
| 1777975738 | 12.78° C | 90% | 1005.4 hPa | 0.51 mm | 3.13 m/s, 141° | - | - |
| 1777975701 | 12.78° C | 90% | 1005.4 hPa | 0.51 mm | 3.13 m/s, 141° | - | - |
| 1777975164 | 12.78° C | 90% | 1005.7 hPa | 0.51 mm | 3.58 m/s, 151° | - | - |
| 1777974621 | 12.78° C | 90% | 1005.2 hPa | 0.25 mm | 3.58 m/s, 118° | - | - |
| 1777974082 | 12.78° C | 90% | 1006.1 hPa | 0.51 mm | 3.13 m/s, 121° | - | - |
| 1777973542 | 12.78° C | 90% | 1006.4 hPa | 1.02 mm | 2.68 m/s, 139° | - | - |
| 1777971381 | 12.78° C | 90% | 1007.9 hPa | 4.83 mm | 1.34 m/s, 160° | - | - |
| 1777970842 | 12.78° C | 90% | 1008.1 hPa | 5.33 mm | 0.45 m/s, 252° | - | - |
| 1777970300 | 12.78° C | 90% | 1008.2 hPa | 5.59 mm | 1.34 m/s, 282° | - | - |
| 1777969761 | 12.78° C | 90% | 1008.1 hPa | 6.1 mm | 1.34 m/s, 286° | - | - |
| 1777969221 | 12.78° C | 90% | 1007.9 hPa | 5.33 mm | 0.89 m/s, 296° | - | - |
| 1777968681 | 12.78° C | 90% | 1007.4 hPa | 4.83 mm | 0.45 m/s, 296° | - | - |
| 1777968141 | 12.78° C | 89% | 1007.3 hPa | 4.32 mm | 0.45 m/s, 291° | - | - |
| 1777967601 | 12.78° C | 89% | 1007.4 hPa | 3.56 mm | 0.45 m/s, 311° | - | - |
| 1777967061 | 12.78° C | 89% | 1007.4 hPa | 3.56 mm | 1.34 m/s, 303° | - | - |
| 1777966521 | 12.78° C | 88% | 1007 hPa | 3.56 mm | 0.45 m/s, 303° | - | - |
| 1777965980 | 12.78° C | 88% | 1006.8 hPa | 2.79 mm | 0 m/s | - | - |
| 1777965442 | 13.33° C | 87% | 1007.5 hPa | 2.03 mm | 1.34 m/s, 302° | - | - |
| 1777964360 | 13.33° C | 86% | 1007.6 hPa | 1.27 mm | 3.13 m/s, 301° | - | - |
| 1777963821 | 13.89° C | 84% | 1007.6 hPa | 1.02 mm | 3.13 m/s, 304° | - | - |
| 1777963282 | 15° C | 79% | 1007.7 hPa | 0.25 mm | 4.02 m/s, 303° | - | - |
* Rain latest hour (hover to see other rain measurements)
** Current wind speed in m/s (hover to see current wind gust speed)